Time;durP1;ratioP1;P1;durP2;ratioP2;P2;SDS_P1;SDS_P2;PMS_P1;PMS_P2;Temp;Humidity;BMP_temperature;BMP_pressure;BME280_temperature;BME280_humidity;BME280_pressure;Samples;Min_cycle;Max_cycle;Signal;HPM_P1;HPM_P2
2021/06/01 02:44:41;;;;;;;4.90;4.60;;;12.30;69.50;;;;;;5249875;23;20528;-89
2021/06/01 02:47:11;;;;;;;4.53;4.23;;;12.30;72.70;;;;;;5003104;28;20409;-91
2021/06/01 02:49:42;;;;;;;5.63;5.10;;;13.80;75.70;;;;;;4987225;28;20436;-90
2021/06/01 02:54:44;;;;;;;4.10;3.90;;;12.00;71.00;;;;;;5255106;23;20289;-90
2021/06/01 03:15:08;;;;;;;4.83;4.47;;;12.80;75.30;;;;;;5019076;28;20467;-93
2021/06/01 03:17:34;;;;;;;4.50;4.23;;;12.40;73.10;;;;;;5002377;28;20181;-90
2021/06/01 03:20:03;;;;;;;5.27;4.77;;;13.40;76.60;;;;;;5018591;28;20426;-90
2021/06/01 03:22:29;;;;;;;4.60;4.40;;;12.40;73.50;;;;;;5018563;28;20162;-91
2021/06/01 03:24:55;;;;;;;4.80;4.50;;;11.70;72.30;;;;;;5322980;23;24434;-86
2021/06/01 03:27:21;;;;;;;5.47;5.00;;;11.90;74.60;;;;;;5545697;23;20488;-91
2021/06/01 03:32:27;;;;;;;5.80;5.00;;;12.00;70.80;;;;;;3713769;23;20221;-88
2021/06/01 03:34:53;;;;;;;4.30;4.10;;;12.40;71.60;;;;;;5018560;28;20512;-90
2021/06/01 03:40:00;;;;;;;5.17;4.90;;;11.90;71.40;;;;;;5900512;23;20220;-88
2021/06/01 03:42:26;;;;;;;5.80;5.30;;;12.60;77.70;;;;;;5008637;28;20479;-89
2021/06/01 03:44:56;;;;;;;4.80;4.70;;;12.60;73.70;;;;;;4995304;28;20421;-91
2021/06/01 03:47:22;;;;;;;6.70;6.10;;;12.10;76.60;;;;;;5137235;23;20331;-90
2021/06/01 03:54:59;;;;;;;5.40;4.97;;;11.70;72.70;;;;;;5342548;23;20482;-91
2021/06/01 03:57:25;;;;;;;5.67;5.13;;;11.90;75.70;;;;;;5037255;28;20931;-91
2021/06/01 04:05:02;;;;;;;5.33;4.93;;;11.80;72.70;;;;;;5436310;23;20467;-89
2021/06/01 04:07:29;;;;;;;5.47;5.07;;;11.80;72.80;;;;;;5062848;23;20578;-89
2021/06/01 04:12:44;;;;;;;5.77;5.37;;;11.90;72.10;;;;;;5868647;23;21094;-90
2021/06/01 04:31:31;;;;;;;4.87;4.57;;;12.10;70.40;;;;;;5395855;23;20549;-90
2021/06/01 04:36:33;;;;;;;4.80;4.60;;;12.20;70.40;;;;;;5109115;23;20473;-89
2021/06/01 04:38:59;;;;;;;4.70;4.50;;;13.90;73.50;;;;;;5033095;28;20408;-91
2021/06/01 04:41:26;;;;;;;5.97;5.57;;;13.30;75.00;;;;;;5030864;28;20485;-88
2021/06/01 04:43:51;;;;;;;5.83;5.27;;;12.60;70.50;;;;;;5032570;28;20404;-89
2021/06/01 04:46:17;;;;;;;4.90;4.77;;;13.00;69.80;;;;;;5029022;28;20435;-89
2021/06/01 04:48:43;;;;;;;5.07;4.80;;;13.90;70.50;;;;;;5028343;28;20184;-89
2021/06/01 04:51:16;;;;;;;4.40;4.30;;;13.10;65.40;;;;;;5023529;28;20751;-90
2021/06/01 04:53:56;;;;;;;4.60;4.37;;;12.20;63.40;;;;;;5025364;28;20177;-91
2021/06/01 04:56:23;;;;;;;4.97;4.67;;;15.20;65.50;;;;;;5002939;28;20491;-89
2021/06/01 04:58:49;;;;;;;6.20;4.60;;;16.00;62.30;;;;;;5005017;28;20424;-90
2021/06/01 05:01:15;;;;;;;7.80;5.80;;;14.40;59.00;;;;;;5011319;28;20415;-90
2021/06/01 05:03:41;;;;;;;5.50;5.10;;;13.80;58.20;;;;;;5008971;28;20408;-90
2021/06/01 05:06:07;;;;;;;6.33;5.10;;;15.50;58.30;;;;;;5006406;28;20519;-90
2021/06/01 05:08:33;;;;;;;7.00;5.40;;;14.40;56.10;;;;;;5006948;28;20420;-90
2021/06/01 05:10:59;;;;;;;5.10;4.80;;;16.30;57.00;;;;;;5002032;28;20428;-89
2021/06/01 05:13:25;;;;;;;5.50;5.10;;;16.50;57.70;;;;;;4986694;28;20417;-91
2021/06/01 05:15:52;;;;;;;8.43;6.20;;;17.90;57.10;;;;;;5002461;28;20276;-90
2021/06/01 05:18:17;;;;;;;5.57;5.13;;;16.80;55.40;;;;;;4999973;28;20165;-88
2021/06/01 05:20:43;;;;;;;5.73;5.40;;;17.50;55.50;;;;;;5000551;28;20807;-92
2021/06/01 05:23:09;;;;;;;20.33;8.30;;;17.90;55.00;;;;;;4984179;28;20939;-91
2021/06/01 05:25:35;;;;;;;14.80;6.27;;;17.60;53.50;;;;;;4984346;28;20182;-91
2021/06/01 05:28:01;;;;;;;5.63;5.20;;;17.90;53.00;;;;;;5000462;28;20489;-87
2021/06/01 05:31:07;;;;;;;6.73;4.80;;;19.10;52.40;;;;;;5003284;28;20592;-92
2021/06/01 05:33:30;;;;;;;11.97;6.67;;;18.40;50.90;;;;;;5011179;28;20424;-92
2021/06/01 05:35:56;;;;;;;13.23;6.50;;;18.70;50.10;;;;;;5010032;28;20591;-93
2021/06/01 05:38:25;;;;;;;7.03;5.70;;;20.00;51.30;;;;;;4984244;28;20459;-91
2021/06/01 05:40:52;;;;;;;22.60;9.33;;;19.10;49.40;;;;;;4983463;28;20189;-93
2021/06/01 05:43:17;;;;;;;66.50;18.10;;;20.80;49.80;;;;;;4982798;28;20916;-90
2021/06/01 05:45:43;;;;;;;68.27;16.53;;;19.60;48.90;;;;;;5001848;28;20455;-89
2021/06/01 05:48:10;;;;;;;19.13;6.90;;;20.70;49.20;;;;;;4301181;28;10000276;-92
2021/06/01 05:50:38;;;;;;;6.73;5.20;;;20.00;47.80;;;;;;5002167;28;20496;-88
2021/06/01 05:53:07;;;;;;;5.50;5.10;;;20.20;46.50;;;;;;5019530;28;20432;-90
2021/06/01 05:55:34;;;;;;;4.50;4.40;;;19.10;45.80;;;;;;5021030;28;20470;-92
2021/06/01 05:58:00;;;;;;;5.33;4.83;;;21.80;47.70;;;;;;5021471;28;20466;-90
2021/06/01 06:00:30;;;;;;;5.00;4.80;;;22.20;47.10;;;;;;5003698;28;20415;-92
2021/06/01 06:02:56;;;;;;;5.77;5.27;;;21.50;45.00;;;;;;5022235;28;20420;-91
2021/06/01 06:05:22;;;;;;;5.40;5.00;;;21.90;44.60;;;;;;4988337;28;20838;-93
2021/06/01 06:07:48;;;;;;;5.93;4.63;;;23.00;44.00;;;;;;5002639;28;20526;-92
2021/06/01 06:10:14;;;;;;;5.27;4.93;;;22.40;43.30;;;;;;5019060;28;21134;-92
2021/06/01 06:12:40;;;;;;;5.27;4.83;;;23.80;43.30;;;;;;5009464;28;20416;-91
2021/06/01 06:15:10;;;;;;;5.67;4.37;;;24.20;42.60;;;;;;4998888;28;20205;-93
2021/06/01 06:17:43;;;;;;;4.53;4.37;;;23.60;41.50;;;;;;4992155;28;20181;-93
2021/06/01 06:20:14;;;;;;;4.67;4.53;;;24.40;41.20;;;;;;4996974;28;20417;-91
2021/06/01 06:22:58;;;;;;;4.33;4.03;;;24.60;40.00;;;;;;5003433;28;20490;-92
2021/06/01 06:25:26;;;;;;;6.13;4.40;;;25.00;39.40;;;;;;4986114;28;20411;-91
2021/06/01 06:27:52;;;;;;;4.50;4.17;;;25.40;39.20;;;;;;4997827;28;20527;-89
2021/06/01 06:30:18;;;;;;;4.93;4.53;;;25.40;37.80;;;;;;4999686;28;20435;-92
2021/06/01 06:32:45;;;;;;;4.67;3.70;;;25.80;38.10;;;;;;5015675;28;20429;-91
2021/06/01 06:35:12;;;;;;;5.00;4.60;;;26.20;37.10;;;;;;4992714;28;20490;-90
2021/06/01 06:37:37;;;;;;;4.50;4.20;;;26.50;37.10;;;;;;5003537;28;20413;-92
2021/06/01 06:40:06;;;;;;;4.00;3.90;;;26.70;36.60;;;;;;4983852;28;20428;-89
2021/06/01 06:42:33;;;;;;;5.20;5.00;;;26.10;36.30;;;;;;4982724;28;20173;-88
2021/06/01 06:44:59;;;;;;;5.87;5.33;;;27.10;36.70;;;;;;5000262;28;20420;-88
2021/06/01 06:47:42;;;;;;;4.33;4.23;;;27.20;37.10;;;;;;4969703;28;20497;-90
2021/06/01 06:50:11;;;;;;;4.10;4.00;;;26.80;35.90;;;;;;4991295;28;20428;-90
2021/06/01 06:52:37;;;;;;;4.20;4.10;;;26.90;35.80;;;;;;4981970;28;20435;-91
2021/06/01 06:55:08;;;;;;;3.93;3.80;;;26.60;34.90;;;;;;5015635;28;20456;-92
2021/06/01 06:57:35;;;;;;;5.23;4.30;;;27.40;34.10;;;;;;4993166;28;20158;-89
2021/06/01 07:00:01;;;;;;;4.80;4.50;;;28.00;33.50;;;;;;5003681;28;20424;-92
2021/06/01 07:02:29;;;;;;;4.20;4.03;;;27.70;33.70;;;;;;4999924;28;20413;-93
2021/06/01 07:04:54;;;;;;;9.80;9.10;;;28.70;33.80;;;;;;5000454;28;20443;-93
2021/06/01 07:07:20;;;;;;;4.70;4.60;;;28.30;33.00;;;;;;5002079;28;20420;-91
2021/06/01 07:09:45;;;;;;;4.07;3.97;;;28.70;32.70;;;;;;4982403;28;20222;-91
2021/06/01 07:12:13;;;;;;;3.63;3.43;;;28.90;32.70;;;;;;4983402;28;20264;-90
2021/06/01 07:14:56;;;;;;;4.03;3.90;;;29.10;32.30;;;;;;4984549;28;20244;-92
2021/06/01 07:17:23;;;;;;;3.93;3.73;;;28.70;32.10;;;;;;5000408;28;20460;-92
2021/06/01 07:19:51;;;;;;;3.87;3.77;;;29.00;32.90;;;;;;4999870;28;20409;-90
2021/06/01 07:22:17;;;;;;;4.80;4.40;;;28.90;32.40;;;;;;4979359;28;20467;-90
2021/06/01 07:24:43;;;;;;;4.83;4.50;;;29.00;32.40;;;;;;4999042;28;20408;-90
2021/06/01 07:27:08;;;;;;;3.97;3.87;;;29.50;31.40;;;;;;4981929;28;20609;-83
2021/06/01 07:31:34;;;;;;;4.55;4.28;;;29.80;30.60;;;;;;5064852;27;1202486;-83
2021/06/01 07:33:59;;;;;;;4.23;4.10;;;30.20;31.30;;;;;;5089599;28;20268;-83
2021/06/01 07:36:25;;;;;;;4.50;4.10;;;30.50;30.60;;;;;;5089373;28;20170;-82
2021/06/01 07:38:50;;;;;;;3.97;3.87;;;31.10;30.00;;;;;;5088798;28;20174;-81
2021/06/01 07:41:16;;;;;;;4.77;4.67;;;31.10;29.80;;;;;;5089751;28;20174;-85
2021/06/01 07:43:58;;;;;;;;;;;;;;;;;;;;;
2021/06/01 07:46:38;;;;;;;4.00;3.90;;;31.50;29.30;;;;;;5108891;28;20225;-91
2021/06/01 07:49:04;;;;;;;4.13;3.93;;;31.60;29.50;;;;;;5101595;28;20415;-93
2021/06/01 07:51:32;;;;;;;4.67;4.47;;;31.70;29.80;;;;;;5102524;28;20522;-92
2021/06/01 07:54:02;;;;;;;5.60;5.20;;;32.00;29.30;;;;;;5105076;28;20415;-89
2021/06/01 07:56:28;;;;;;;4.57;4.40;;;32.20;29.20;;;;;;5107361;28;20411;-90
2021/06/01 07:58:58;;;;;;;4.00;4.00;;;32.50;28.90;;;;;;5214510;23;20533;-87
2021/06/01 08:01:26;;;;;;;4.30;4.23;;;32.40;28.10;;;;;;5080412;23;20503;-91
2021/06/01 08:03:52;;;;;;;4.50;4.10;;;32.20;28.00;;;;;;5172508;23;20487;-88
2021/06/01 08:06:19;;;;;;;4.30;3.90;;;31.00;28.40;;;;;;5011186;28;20412;-87
2021/06/01 08:08:45;;;;;;;4.30;3.90;;;32.80;29.30;;;;;;5011130;28;20173;-87
2021/06/01 08:11:10;;;;;;;4.23;3.83;;;32.50;28.60;;;;;;5010009;28;21013;-87
2021/06/01 08:13:37;;;;;;;4.37;4.27;;;;;;;;;;5009952;28;20173;-88
2021/06/01 08:16:03;;;;;;;4.70;4.40;;;33.50;27.50;;;;;;5009061;28;20219;-86
2021/06/01 08:18:38;;;;;;;3.37;3.30;;;33.80;27.40;;;;;;5009315;28;20427;-87
2021/06/01 08:21:08;;;;;;;3.80;3.70;;;33.10;26.00;;;;;;5008968;28;20819;-87
2021/06/01 08:23:36;;;;;;;3.90;3.80;;;33.70;26.30;;;;;;5010889;28;20439;-88
2021/06/01 08:26:02;;;;;;;3.40;3.40;;;33.90;25.60;;;;;;5009636;28;20424;-87
2021/06/01 08:28:28;;;;;;;3.37;3.10;;;34.00;25.60;;;;;;5010143;28;20723;-87
2021/06/01 08:30:54;;;;;;;3.77;3.47;;;34.00;25.80;;;;;;5008898;28;20555;-88
2021/06/01 08:33:21;;;;;;;3.70;3.50;;;34.50;25.80;;;;;;5008818;28;20176;-88
2021/06/01 08:35:51;;;;;;;3.80;3.67;;;34.20;25.40;;;;;;5012402;28;20172;-91
2021/06/01 08:38:18;;;;;;;3.40;3.30;;;34.90;25.00;;;;;;5003222;28;20439;-93
2021/06/01 08:40:49;;;;;;;3.60;3.37;;;34.30;25.20;;;;;;5008642;28;20417;-90
2021/06/01 08:43:17;;;;;;;4.40;4.30;;;34.30;25.60;;;;;;5000882;28;20449;-90
2021/06/01 08:45:49;;;;;;;4.90;4.63;;;34.30;25.10;;;;;;4998335;28;20556;-89
2021/06/01 08:48:16;;;;;;;3.00;2.90;;;34.80;25.20;;;;;;4991674;28;20512;-88
2021/06/01 08:50:45;;;;;;;2.73;2.67;;;34.90;23.40;;;;;;4997667;28;20570;-89
2021/06/01 08:53:10;;;;;;;3.20;2.90;;;35.30;23.20;;;;;;4996907;28;20405;-89
2021/06/01 08:55:36;;;;;;;3.57;3.40;;;34.50;23.70;;;;;;4997201;28;20933;-89
2021/06/01 08:58:02;;;;;;;3.38;3.25;;;33.20;23.80;;;;;;4649342;28;10000327;-91
2021/06/01 09:00:28;;;;;;;3.27;3.07;;;33.40;23.80;;;;;;4999794;28;20184;-91
2021/06/01 09:03:11;;;;;;;7.57;7.27;;;33.50;23.90;;;;;;4999553;28;20447;-88
2021/06/01 09:06:08;;;;;;;3.27;3.27;;;34.30;23.60;;;;;;4998270;28;20177;-93
2021/06/01 09:14:21;;;;;;;3.10;3.00;;;33.40;23.40;;;;;;4979719;28;20470;-88
2021/06/01 09:22:35;;;;;;;6.03;3.73;;;33.50;23.50;;;;;;4996400;28;20471;-87
2021/06/01 09:25:10;;;;;;;2.90;2.90;;;33.80;23.40;;;;;;4995863;28;20420;-84
2021/06/01 09:27:42;;;;;;;2.90;2.80;;;33.10;23.70;;;;;;4989541;28;20444;-87
2021/06/01 09:30:08;;;;;;;3.00;2.80;;;33.90;23.80;;;;;;4993357;28;20981;-87
2021/06/01 09:32:42;;;;;;;3.40;3.10;;;34.60;23.50;;;;;;4993850;28;20503;-87
2021/06/01 09:35:09;;;;;;;3.17;3.07;;;34.90;23.20;;;;;;4995433;28;20444;-86
2021/06/01 09:37:36;;;;;;;2.83;2.73;;;35.20;23.20;;;;;;4994950;28;20761;-87
2021/06/01 09:40:17;;;;;;;3.70;3.00;;;35.30;22.80;;;;;;4999472;28;20447;-90
2021/06/01 09:42:49;;;;;;;2.87;2.67;;;33.80;23.40;;;;;;4999144;28;20420;-88
2021/06/01 09:45:23;;;;;;;3.90;3.58;;;33.10;23.50;;;;;;4652381;28;10000034;-88
2021/06/01 09:47:57;;;;;;;4.73;3.17;;;33.40;23.60;;;;;;4996504;28;20260;-90
2021/06/01 09:50:44;;;;;;;2.87;2.83;;;34.50;23.80;;;;;;5015957;28;20490;-93
2021/06/01 09:53:40;;;;;;;2.97;2.97;;;35.90;23.80;;;;;;5011374;28;20413;-91
2021/06/01 09:56:14;;;;;;;3.07;2.97;;;34.30;23.40;;;;;;5003019;28;20482;-91
2021/06/01 09:58:45;;;;;;;4.67;4.37;;;33.30;23.60;;;;;;5011587;28;20428;-90
2021/06/01 10:01:15;;;;;;;4.07;3.70;;;33.80;23.60;;;;;;5026953;28;20405;-91
2021/06/01 10:03:46;;;;;;;4.60;4.50;;;34.30;23.10;;;;;;5010106;28;20460;-90
2021/06/01 10:06:32;;;;;;;3.60;3.50;;;35.10;23.40;;;;;;5026359;28;20519;-94
2021/06/01 10:09:19;;;;;;;;;;;;;;;;;;;;;
2021/06/01 10:11:59;;;;;;;3.70;3.60;;;36.50;23.50;;;;;;5074916;23;20514;-92
2021/06/01 10:14:26;;;;;;;3.87;3.73;;;36.70;23.30;;;;;;5031065;28;20455;-92
2021/06/01 10:16:52;;;;;;;3.20;3.20;;;37.50;22.90;;;;;;5026439;28;20415;-91
2021/06/01 10:19:21;;;;;;;3.70;3.50;;;37.90;22.90;;;;;;5027212;28;20416;-93
2021/06/01 10:21:54;;;;;;;3.00;2.90;;;37.60;22.50;;;;;;4676654;28;9999889;-92
2021/06/01 10:24:20;;;;;;;3.30;3.10;;;38.10;22.50;;;;;;5019162;28;20435;-92
2021/06/01 10:26:51;;;;;;;2.80;2.80;;;37.80;22.70;;;;;;5024130;28;20408;-92
2021/06/01 10:29:17;;;;;;;4.00;3.80;;;36.50;22.80;;;;;;5042966;28;20181;-88
2021/06/01 10:31:51;;;;;;;4.17;4.00;;;34.90;23.50;;;;;;5027530;28;20438;-90
2021/06/01 10:34:20;;;;;;;3.93;3.77;;;35.00;23.60;;;;;;5029632;28;20416;-93
2021/06/01 10:50:39;;;;;;;4.37;4.13;;;35.80;23.40;;;;;;5022416;28;20443;-90
2021/06/01 10:53:08;;;;;;;5.67;5.40;;;34.80;23.80;;;;;;5020176;28;20507;-89
2021/06/01 10:55:49;;;;;;;6.00;5.60;;;34.30;23.90;;;;;;5001831;28;20904;-88
2021/06/01 10:58:16;;;;;;;3.50;3.50;;;34.70;23.90;;;;;;5020193;28;20420;-90
2021/06/01 11:03:09;;;;;;;4.83;4.67;;;35.60;23.70;;;;;;5002981;28;20428;-89
2021/06/01 11:06:01;;;;;;;4.47;4.27;;;35.90;23.50;;;;;;5019627;28;20764;-89
2021/06/01 11:08:45;;;;;;;4.87;4.57;;;35.40;23.20;;;;;;5020117;28;20422;-92
2021/06/01 11:11:23;;;;;;;9.97;6.27;;;35.20;23.30;;;;;;5002674;28;20427;-89
2021/06/01 11:13:49;;;;;;;7.60;5.17;;;36.20;24.10;;;;;;5002168;28;20526;-89
2021/06/01 11:16:15;;;;;;;7.83;7.10;;;36.20;23.50;;;;;;5001966;28;20578;-86
2021/06/01 11:18:52;;;;;;;6.33;5.90;;;36.50;23.70;;;;;;5018600;28;20423;-89
2021/06/01 11:21:55;;;;;;;3.73;3.63;;;37.20;22.70;;;;;;5021730;28;20463;-89
2021/06/01 11:35:20;;;;;;;16.67;15.07;;;36.60;22.60;;;;;;5018917;28;20430;-92
2021/06/01 11:38:00;;;;;;;6.90;6.33;;;37.10;22.50;;;;;;5000901;28;20439;-91
2021/06/01 11:43:15;;;;;;;5.37;5.17;;;38.00;22.50;;;;;;5052910;28;20171;-89
2021/06/01 11:45:54;;;;;;;9.33;8.53;;;36.40;22.20;;;;;;5035365;28;20418;-90
2021/06/01 11:51:26;;;;;;;7.87;6.43;;;36.10;22.30;;;;;;5038192;28;20411;-87
2021/06/01 11:54:03;;;;;;;14.50;13.23;;;36.60;22.40;;;;;;5038934;28;20413;-89
2021/06/01 12:02:22;;;;;;;16.73;15.13;;;36.90;22.80;;;;;;5036938;28;20402;-91
2021/06/01 12:18:58;;;;;;;4.70;4.60;;;36.70;22.00;;;;;;5046710;28;21017;-88
2021/06/01 12:21:34;;;;;;;8.00;6.27;;;37.70;22.60;;;;;;5033154;28;20474;-93
2021/06/01 12:27:15;;;;;;;7.43;6.63;;;35.60;22.70;;;;;;4664988;22;20493;-88
2021/06/01 12:32:40;;;;;;;7.03;6.33;;;34.90;23.20;;;;;;5063593;22;20553;-90
2021/06/01 13:09:42;;;;;;;3.67;3.47;;;36.60;22.80;;;;;;5055699;28;21249;-91
2021/06/01 13:12:19;;;;;;;5.80;5.07;;;36.40;23.10;;;;;;5055217;28;20414;-88
2021/06/01 13:38:16;;;;;;;3.77;3.50;;;36.40;23.60;;;;;;5066935;28;20444;-94
2021/06/01 13:46:39;;;;;;;6.67;6.20;;;36.00;24.00;;;;;;5058127;28;20750;-89
2021/06/01 13:49:20;;;;;;;4.10;3.53;;;36.00;24.10;;;;;;5055865;28;20421;-88
2021/06/01 13:57:08;;;;;;;3.87;3.67;;;35.20;24.30;;;;;;5058393;28;20779;-90
2021/06/01 13:59:59;;;;;;;4.33;4.13;;;35.10;24.40;;;;;;5055074;28;20413;-89
2021/06/01 14:10:55;;;;;;;4.30;4.10;;;34.70;24.60;;;;;;5037797;28;20355;-89
2021/06/01 14:21:11;;;;;;;3.70;3.53;;;34.30;24.70;;;;;;5046802;28;20214;-90
2021/06/01 15:24:41;;;;;;;4.50;4.40;;;29.20;27.60;;;;;;5038202;28;20581;-88
2021/06/01 15:30:05;;;;;;;3.70;3.50;;;28.80;27.40;;;;;;5020528;28;20773;-89
2021/06/01 15:52:28;;;;;;;3.30;3.23;;;28.20;27.80;;;;;;5051507;28;20441;-90
2021/06/01 15:59:02;;;;;;;13.97;12.50;;;28.30;27.80;;;;;;5047245;28;20462;-89
2021/06/01 16:14:28;;;;;;;3.00;2.90;;;28.90;28.30;;;;;;5055745;28;20415;-89
2021/06/01 16:23:10;;;;;;;5.80;5.40;;;27.40;28.10;;;;;;5042084;28;20417;-89
2021/06/01 16:41:38;;;;;;;5.53;5.23;;;28.00;28.50;;;;;;5038123;28;20425;-90
2021/06/01 16:42:14;;;;;;;5.63;3.80;;;27.20;28.40;;;;;;5041495;28;20445;-91
2021/06/01 17:04:19;;;;;;;5.30;3.60;;;26.50;29.00;;;;;;5037693;28;20418;-88
2021/06/01 17:06:57;;;;;;;3.20;3.03;;;26.70;29.30;;;;;;5030538;28;20438;-88
2021/06/01 17:12:14;;;;;;;3.40;3.10;;;26.80;29.20;;;;;;5037696;28;20780;-90
2021/06/01 17:14:41;;;;;;;4.37;3.43;;;26.70;29.10;;;;;;5369740;22;20441;-91
2021/06/01 17:17:09;;;;;;;3.30;3.20;;;26.90;29.60;;;;;;5066584;28;20512;-85
2021/06/01 17:22:58;;;;;;;3.47;3.37;;;25.20;28.30;;;;;;5025921;28;20859;-87
2021/06/01 17:37:02;;;;;;;3.13;3.13;;;27.10;29.60;;;;;;5062595;28;20417;-92
2021/06/01 17:39:56;;;;;;;;;;;;;;;;;;;;;
2021/06/01 17:42:39;;;;;;;3.67;3.50;;;26.40;29.50;;;;;;5052523;28;20431;-88
2021/06/01 17:48:02;;;;;;;5.57;3.60;;;26.30;29.40;;;;;;5262600;22;20480;-88
2021/06/01 17:50:29;;;;;;;3.60;3.47;;;26.30;29.40;;;;;;5039318;28;20417;-90
2021/06/01 17:52:57;;;;;;;3.13;3.03;;;26.50;29.50;;;;;;5038038;28;20917;-91
2021/06/01 17:55:26;;;;;;;6.53;3.03;;;26.00;29.60;;;;;;5057198;28;20425;-92
2021/06/01 17:57:53;;;;;;;3.00;2.90;;;25.90;29.70;;;;;;5038518;28;20765;-90
2021/06/01 18:00:21;;;;;;;5.50;3.40;;;26.00;29.90;;;;;;5037527;28;20458;-91
2021/06/01 18:02:48;;;;;;;3.17;3.00;;;25.80;29.70;;;;;;5037470;28;20509;-90
2021/06/01 18:05:16;;;;;;;2.67;2.67;;;26.50;30.10;;;;;;5055363;28;20417;-90
2021/06/01 18:08:06;;;;;;;4.20;4.10;;;25.50;29.80;;;;;;5058819;28;20514;-89
2021/06/01 19:01:19;;;;;;;19.17;17.13;;;25.90;32.50;;;;;;5025514;28;20829;-91
2021/06/01 21:04:21;;;;;;;5.05;4.75;;;21.00;41.30;;;;;;5361759;23;20453;31
2021/06/01 21:06:47;;;;;;;6.83;5.37;;;20.70;42.60;;;;;;4975987;28;20454;-93
